Time;durP1;ratioP1;P1;durP2;ratioP2;P2;SDS_P1;SDS_P2;PMS_P1;PMS_P2;Temp;Humidity;BMP_temperature;BMP_pressure;BME280_temperature;BME280_humidity;BME280_pressure;Samples;Min_cycle;Max_cycle;Signal;HPM_P1;HPM_P2
2022/03/16 00:00:37;;;;;;;13.90;8.00;;;;;;;2.47;45.41;101746.20;116765;1189;24214;-61
2022/03/16 00:03:06;;;;;;;11.80;7.20;;;;;;;2.47;45.58;101745.14;116846;1190;22534;-51
2022/03/16 00:05:35;;;;;;;11.10;7.00;;;;;;;2.48;45.37;101745.89;116908;1189;21901;-62
2022/03/16 00:08:21;;;;;;;15.10;8.10;;;;;;;2.45;45.55;101740.73;116793;1189;23453;-50
2022/03/16 00:10:49;;;;;;;13.00;7.50;;;;;;;2.42;45.38;101739.25;116852;1190;23570;-51
2022/03/16 00:13:18;;;;;;;13.90;7.60;;;;;;;2.40;45.44;101737.44;116877;1189;23451;-49
2022/03/16 00:15:46;;;;;;;13.90;8.00;;;;;;;2.40;45.46;101733.95;116849;1189;23454;-54
2022/03/16 00:18:15;;;;;;;13.80;8.00;;;;;;;2.38;45.56;101731.80;116776;1189;21866;-50
2022/03/16 00:20:47;;;;;;;14.70;8.70;;;;;;;2.38;45.63;101726.44;116880;1189;22629;-49
2022/03/16 00:23:16;;;;;;;12.60;7.90;;;;;;;2.39;45.53;101726.11;116857;1193;23453;-49
2022/03/16 00:25:44;;;;;;;13.30;8.40;;;;;;;2.39;45.70;101724.91;116875;1189;23021;-50
2022/03/16 00:28:14;;;;;;;13.80;8.20;;;;;;;2.40;45.52;101721.65;116791;1189;22953;-60
2022/03/16 00:30:42;;;;;;;14.30;8.30;;;;;;;2.39;45.63;101717.29;116903;1189;23494;-49
2022/03/16 00:33:12;;;;;;;14.20;8.10;;;;;;;2.40;45.63;101717.66;116888;1189;23543;-61
2022/03/16 00:35:41;;;;;;;14.30;8.10;;;;;;;2.39;45.63;101714.69;116875;1189;21870;-49
2022/03/16 00:38:12;;;;;;;15.50;8.90;;;;;;;2.39;45.68;101717.78;116863;1188;23569;-60
2022/03/16 00:40:43;;;;;;;12.90;7.50;;;;;;;2.38;45.60;101714.29;116754;1189;21855;-60
2022/03/16 00:43:13;;;;;;;14.60;7.90;;;;;;;2.38;45.74;101718.98;116945;1189;23479;-49
2022/03/16 00:45:43;;;;;;;14.30;8.50;;;;;;;2.37;45.71;101724.49;116978;1186;21866;-57
2022/03/16 00:48:12;;;;;;;13.20;7.40;;;;;;;2.35;45.82;101728.58;116872;1189;23641;-50
2022/03/16 00:50:40;;;;;;;13.60;8.30;;;;;;;2.34;45.68;101731.28;116811;1189;23467;-60
2022/03/16 00:53:10;;;;;;;13.10;8.80;;;;;;;2.31;45.71;101726.64;116749;1190;23466;-60
2022/03/16 00:55:38;;;;;;;12.00;7.80;;;;;;;2.30;45.70;101725.88;116808;1189;22101;-60
2022/03/16 00:58:07;;;;;;;15.40;8.40;;;;;;;2.29;45.76;101728.27;116884;1189;23467;-60
2022/03/16 01:00:36;;;;;;;12.70;8.40;;;;;;;2.25;45.80;101728.98;116907;1188;21952;-60
2022/03/16 01:03:05;;;;;;;16.10;8.00;;;;;;;2.20;45.69;101727.56;116857;1188;21999;-60
2022/03/16 01:05:34;;;;;;;13.60;8.70;;;;;;;2.16;45.74;101736.02;116922;1189;21851;-60
2022/03/16 01:08:03;;;;;;;14.50;8.40;;;;;;;2.12;45.85;101736.88;116796;1189;22063;-60
2022/03/16 01:10:31;;;;;;;13.80;8.40;;;;;;;2.07;45.95;101732.88;116869;1189;21849;-49
2022/03/16 01:13:00;;;;;;;15.30;8.40;;;;;;;2.06;45.99;101730.23;116915;1189;23582;-60
2022/03/16 01:15:29;;;;;;;15.00;8.80;;;;;;;2.06;45.81;101737.02;116820;1189;23566;-50
2022/03/16 01:17:59;;;;;;;13.30;8.30;;;;;;;2.06;45.97;101737.85;118082;1189;21854;-60
2022/03/16 01:20:28;;;;;;;12.90;7.70;;;;;;;2.04;46.00;101736.91;117682;1189;24206;-49
2022/03/16 01:22:56;;;;;;;15.70;8.40;;;;;;;2.03;45.95;101738.95;116863;1189;21878;-60
2022/03/16 01:25:25;;;;;;;12.60;8.50;;;;;;;2.03;46.06;101735.46;116850;1184;23475;-49
2022/03/16 01:27:53;;;;;;;15.80;8.10;;;;;;;2.01;45.92;101735.73;116867;1189;22226;-60
2022/03/16 01:30:22;;;;;;;14.00;8.20;;;;;;;1.97;45.94;101729.49;116872;1188;21855;-49
2022/03/16 01:32:52;;;;;;;17.10;9.60;;;;;;;1.90;46.00;101726.27;116949;1188;23655;-50
2022/03/16 01:35:20;;;;;;;13.10;8.40;;;;;;;1.84;45.86;101718.85;116896;1189;23584;-49
2022/03/16 01:37:49;;;;;;;14.90;8.70;;;;;;;1.80;46.04;101717.11;116949;1189;21833;-49
2022/03/16 01:40:17;;;;;;;15.80;8.60;;;;;;;1.76;46.05;101713.33;116895;1189;21889;-60
2022/03/16 01:42:45;;;;;;;12.90;7.80;;;;;;;1.76;46.27;101710.73;116914;1189;21852;-49
2022/03/16 01:45:14;;;;;;;15.00;8.90;;;;;;;1.77;46.42;101708.19;116845;1188;21857;-60
2022/03/16 01:47:47;;;;;;;16.90;8.60;;;;;;;1.81;46.41;101711.45;116862;1189;23464;-60
2022/03/16 01:50:15;;;;;;;15.80;9.00;;;;;;;1.81;46.50;101708.02;116877;1189;22065;-60
2022/03/16 01:52:43;;;;;;;13.00;8.40;;;;;;;1.82;46.49;101707.53;116984;1189;23638;-60
2022/03/16 01:55:12;;;;;;;12.00;7.60;;;;;;;1.84;46.43;101709.37;116971;1188;23579;-49
2022/03/16 01:57:43;;;;;;;15.80;9.00;;;;;;;1.87;46.57;101711.02;116903;1188;24188;-48
2022/03/16 02:00:13;;;;;;;14.80;8.30;;;;;;;1.90;46.42;101711.00;116858;1189;21859;-60
2022/03/16 02:02:42;;;;;;;12.80;8.10;;;;;;;1.91;46.61;101710.73;116855;1189;21854;-60
2022/03/16 02:05:10;;;;;;;13.60;8.20;;;;;;;1.92;46.46;101709.54;116930;1188;23453;-48
2022/03/16 02:07:41;;;;;;;14.80;8.60;;;;;;;1.93;46.39;101711.48;116835;1188;23476;-49
2022/03/16 02:10:11;;;;;;;13.70;8.70;;;;;;;1.92;46.54;101715.24;116911;1188;23559;-49
2022/03/16 02:12:43;;;;;;;12.70;7.80;;;;;;;1.89;46.61;101717.70;116803;1190;22618;-60
2022/03/16 02:15:13;;;;;;;14.00;7.90;;;;;;;1.89;46.47;101721.53;116909;1190;21868;-49
2022/03/16 02:17:45;;;;;;;15.50;8.80;;;;;;;1.90;46.54;101721.75;116914;1188;22633;-61
2022/03/16 02:20:15;;;;;;;14.90;8.50;;;;;;;1.93;46.53;101726.05;116950;1188;23472;-49
2022/03/16 02:23:05;;;;;;;12.10;8.10;;;;;;;1.91;46.46;101727.34;116873;1188;23457;-49
2022/03/16 02:25:49;;;;;;;12.60;7.90;;;;;;;1.87;46.41;101729.91;116906;1188;24165;-60
2022/03/16 02:28:30;;;;;;;12.50;7.20;;;;;;;1.85;46.48;101732.09;116776;1188;22815;-49
2022/03/16 02:30:59;;;;;;;13.60;8.00;;;;;;;1.84;46.63;101726.98;116896;1188;23483;-60
2022/03/16 02:33:48;;;;;;;12.60;7.70;;;;;;;1.81;46.58;101727.40;116877;1188;23856;-60
2022/03/16 02:36:17;;;;;;;16.50;8.70;;;;;;;1.75;46.54;101726.26;117119;1188;23488;-49
2022/03/16 02:38:46;;;;;;;17.10;8.50;;;;;;;1.72;46.51;101725.27;116923;1188;23002;-49
2022/03/16 02:41:16;;;;;;;16.10;8.30;;;;;;;1.71;46.70;101728.33;116970;1188;22922;-60
2022/03/16 02:43:44;;;;;;;20.10;8.50;;;;;;;1.71;46.59;101724.90;117017;1189;23459;-49
2022/03/16 02:46:13;;;;;;;15.00;8.20;;;;;;;1.73;46.66;101726.54;116899;1188;23462;-60
2022/03/16 02:48:42;;;;;;;13.70;8.90;;;;;;;1.74;46.59;101724.85;116891;1188;22940;-49
2022/03/16 02:51:10;;;;;;;17.60;10.50;;;;;;;1.73;46.71;101724.79;116872;1188;21856;-60
2022/03/16 02:53:39;;;;;;;14.20;8.10;;;;;;;1.70;46.84;101722.77;116969;1188;23480;-60
2022/03/16 02:56:08;;;;;;;13.00;7.90;;;;;;;1.70;46.83;101726.23;116868;1193;23457;-49
2022/03/16 02:58:40;;;;;;;15.00;7.70;;;;;;;1.69;46.63;101726.34;116942;1184;23553;-49
2022/03/16 03:01:15;;;;;;;14.00;7.80;;;;;;;1.68;46.71;101722.16;116900;1188;23005;-48
2022/03/16 03:03:58;;;;;;;17.20;8.70;;;;;;;1.72;46.81;101721.45;116870;1188;23489;-61
2022/03/16 03:06:27;;;;;;;11.90;7.50;;;;;;;1.73;46.81;101720.48;116948;1189;21906;-60
2022/03/16 03:09:07;;;;;;;14.90;7.90;;;;;;;1.74;46.74;101716.56;116811;1185;22930;-61
2022/03/16 03:11:36;;;;;;;16.50;8.50;;;;;;;1.75;46.85;101719.02;116924;1188;21910;-50
2022/03/16 03:14:05;;;;;;;15.50;7.80;;;;;;;1.76;46.95;101719.42;116836;1189;22620;-61
2022/03/16 03:16:34;;;;;;;14.20;7.80;;;;;;;1.78;46.79;101718.44;116918;1188;23532;-51
2022/03/16 03:19:04;;;;;;;13.40;8.10;;;;;;;1.81;46.85;101721.66;116937;1189;23051;-51
2022/03/16 03:21:34;;;;;;;15.70;9.30;;;;;;;1.79;46.82;101717.09;116983;1188;22324;-60
2022/03/16 03:24:04;;;;;;;15.30;7.70;;;;;;;1.78;46.95;101716.53;116939;1188;23049;-61
2022/03/16 03:26:35;;;;;;;12.80;8.20;;;;;;;1.77;46.98;101715.66;116910;1186;21864;-61
2022/03/16 03:29:04;;;;;;;15.40;7.90;;;;;;;1.77;46.99;101713.37;116965;1188;21862;-61
2022/03/16 03:31:32;;;;;;;17.20;7.90;;;;;;;1.78;47.15;101714.80;116897;1188;22940;-61
2022/03/16 03:34:21;;;;;;;11.80;7.40;;;;;;;1.78;47.02;101719.66;116930;1188;22942;-50
2022/03/16 03:36:50;;;;;;;15.20;7.60;;;;;;;1.76;46.84;101722.33;116883;1186;21920;-62
2022/03/16 03:39:19;;;;;;;11.50;7.20;;;;;;;1.73;46.83;101720.11;116884;1188;23700;-62
2022/03/16 03:41:48;;;;;;;11.60;7.60;;;;;;;1.69;47.01;101719.24;116838;1184;23464;-61
2022/03/16 03:44:17;;;;;;;13.00;7.40;;;;;;;1.66;46.97;101717.70;116839;1188;23463;-50
2022/03/16 03:46:46;;;;;;;11.70;7.30;;;;;;;1.62;46.90;101719.79;116867;1188;23475;-50
2022/03/16 03:49:15;;;;;;;16.40;7.70;;;;;;;1.59;46.89;101717.92;116890;1188;23621;-62
2022/03/16 03:51:44;;;;;;;12.60;7.50;;;;;;;1.57;46.93;101720.75;116810;1189;22113;-61
2022/03/16 03:54:13;;;;;;;11.80;6.30;;;;;;;1.52;46.93;101722.45;117005;1188;21904;-50
2022/03/16 03:56:44;;;;;;;12.30;6.20;;;;;;;1.50;46.96;101722.34;116872;1188;21975;-62
2022/03/16 03:59:12;;;;;;;11.20;6.70;;;;;;;1.47;46.79;101725.34;116909;1188;23494;-61
2022/03/16 04:01:41;;;;;;;12.60;6.70;;;;;;;1.44;46.97;101721.59;116865;1188;23454;-60
2022/03/16 04:04:11;;;;;;;18.30;7.50;;;;;;;1.42;46.93;101724.26;116856;1188;24169;-62
2022/03/16 04:06:40;;;;;;;14.80;6.60;;;;;;;1.39;46.87;101718.23;116827;1188;21854;-62
2022/03/16 04:09:09;;;;;;;10.90;6.40;;;;;;;1.39;47.02;101719.06;116889;1188;21968;-50
2022/03/16 04:11:39;;;;;;;13.50;6.40;;;;;;;1.37;46.91;101722.29;116778;1188;21842;-56
2022/03/16 04:14:08;;;;;;;11.90;6.90;;;;;;;1.36;47.07;101718.41;117051;1188;21854;-63
2022/03/16 04:16:38;;;;;;;13.10;7.20;;;;;;;1.34;47.09;101715.94;116897;1188;22647;-50
2022/03/16 04:19:07;;;;;;;12.80;7.30;;;;;;;1.33;46.99;101716.05;116882;1184;23450;-62
2022/03/16 04:21:36;;;;;;;17.00;6.90;;;;;;;1.32;47.06;101723.59;116970;1188;22995;-62
2022/03/16 04:24:06;;;;;;;;;;;;;;;1.32;47.03;101725.66;116911;1188;22033;-50
2022/03/16 04:26:35;;;;;;;12.80;6.30;;;;;;;1.34;46.96;101727.84;116978;1184;21986;-62
2022/03/16 04:29:03;;;;;;;16.50;6.90;;;;;;;1.37;47.22;101731.92;116954;1189;22917;-65
2022/03/16 04:31:32;;;;;;;17.50;6.30;;;;;;;1.43;47.45;101734.33;116968;1189;22515;-62
2022/03/16 04:34:01;;;;;;;14.70;7.10;;;;;;;1.54;47.61;101730.69;117014;1188;24156;-64
2022/03/16 04:36:31;;;;;;;28.00;7.80;;;;;;;1.64;47.55;101731.29;116896;1189;23004;-63
2022/03/16 04:39:01;;;;;;;26.30;6.80;;;;;;;1.73;47.74;101733.46;116938;1184;22929;-50
2022/03/16 04:41:29;;;;;;;17.90;6.40;;;;;;;1.84;47.63;101735.52;116896;1188;22472;-51
2022/03/16 04:43:58;;;;;;;11.20;7.00;;;;;;;1.91;47.72;101736.67;116900;1189;23480;-50
2022/03/16 04:46:27;;;;;;;18.00;6.80;;;;;;;1.96;47.42;101737.77;116892;1188;21841;-64
2022/03/16 04:48:56;;;;;;;13.20;6.20;;;;;;;1.99;47.55;101736.35;116909;1188;23555;-51
2022/03/16 04:51:25;;;;;;;12.00;6.20;;;;;;;2.02;47.43;101737.16;116937;1188;23451;-51
2022/03/16 04:53:54;;;;;;;11.10;6.10;;;;;;;2.04;47.51;101736.73;116937;1188;23580;-50
2022/03/16 04:56:22;;;;;;;14.10;6.10;;;;;;;2.06;47.55;101740.82;116867;1189;23473;-50
2022/03/16 04:58:51;;;;;;;9.80;5.80;;;;;;;2.07;47.47;101742.58;116925;1188;21890;-62
2022/03/16 05:01:20;;;;;;;12.50;6.60;;;;;;;2.04;47.59;101742.61;117031;1188;22607;-52
2022/03/16 05:03:50;;;;;;;10.40;5.20;;;;;;;2.00;47.42;101749.70;116871;1188;21998;-61
2022/03/16 05:06:19;;;;;;;12.80;6.10;;;;;;;1.96;47.50;101752.98;116947;1188;22932;-49
2022/03/16 05:09:04;;;;;;;10.90;6.10;;;;;;;1.93;47.51;101756.86;116841;1188;26463;-60
2022/03/16 05:11:35;;;;;;;13.10;6.20;;;;;;;1.93;47.46;101762.04;116985;1188;23651;-60
2022/03/16 05:14:05;;;;;;;13.80;5.70;;;;;;;1.94;47.57;101760.36;116913;1188;23585;-50
2022/03/16 05:16:35;;;;;;;18.60;5.50;;;;;;;1.97;47.69;101764.27;116936;1188;24176;-62
2022/03/16 05:19:03;;;;;;;12.50;7.00;;;;;;;1.99;47.50;101761.60;116869;1188;21979;-61
2022/03/16 05:21:32;;;;;;;11.20;5.80;;;;;;;2.01;47.57;101761.38;116846;1189;23589;-49
2022/03/16 05:24:00;;;;;;;11.70;5.90;;;;;;;2.05;47.53;101763.44;117373;1188;21871;-51
2022/03/16 05:26:30;;;;;;;14.90;6.30;;;;;;;2.09;47.64;101769.33;116926;1189;21862;-49
2022/03/16 05:29:05;;;;;;;12.30;6.00;;;;;;;2.15;47.71;101770.66;116678;1189;22642;-61
2022/03/16 05:31:34;;;;;;;11.10;5.20;;;;;;;2.19;47.75;101767.03;116813;1189;21855;-59
2022/03/16 05:34:02;;;;;;;11.10;5.80;;;;;;;2.25;47.90;101769.33;116694;1190;22887;-61
2022/03/16 05:36:31;;;;;;;9.40;5.20;;;;;;;2.33;47.95;101770.55;117177;1188;24176;-51
2022/03/16 05:39:04;;;;;;;14.90;6.40;;;;;;;2.39;48.06;101769.94;116770;1184;21910;-50
2022/03/16 05:41:32;;;;;;;12.60;5.80;;;;;;;2.52;48.24;101772.06;116919;1188;21855;-65
2022/03/16 05:44:02;;;;;;;15.10;6.70;;;;;;;2.62;48.29;101775.62;116858;1188;21911;-65
2022/03/16 05:46:30;;;;;;;11.80;5.90;;;;;;;2.74;48.50;101775.09;116876;1189;22223;-49
2022/03/16 05:48:59;;;;;;;12.30;5.90;;;;;;;2.87;48.54;101773.20;116776;1189;23555;-64
2022/03/16 05:51:28;;;;;;;9.10;5.50;;;;;;;3.01;48.48;101767.01;117570;1188;23600;-49
2022/03/16 05:53:57;;;;;;;12.60;6.00;;;;;;;3.14;48.53;101767.85;116869;1188;23564;-66
2022/03/16 05:56:25;;;;;;;11.80;5.90;;;;;;;3.28;48.57;101766.84;116837;1189;21954;-67
2022/03/16 05:58:54;;;;;;;11.10;5.00;;;;;;;3.37;48.60;101766.71;116800;1188;23695;-66
2022/03/16 06:01:23;;;;;;;10.10;5.10;;;;;;;3.48;48.62;101762.95;116880;1189;24166;-49
2022/03/16 06:03:54;;;;;;;;;;;;;;;3.58;48.72;101755.52;116894;1189;21835;-66
2022/03/16 06:06:26;;;;;;;9.80;5.70;;;;;;;3.69;48.65;101752.98;116718;1189;22931;-64
2022/03/16 06:08:57;;;;;;;10.70;5.70;;;;;;;3.81;48.67;101756.22;116856;1189;22936;-64
2022/03/16 06:11:27;;;;;;;12.30;5.60;;;;;;;3.94;48.63;101756.88;116938;1186;21890;-49
2022/03/16 06:13:56;;;;;;;12.20;5.30;;;;;;;4.07;48.77;101756.11;116833;1186;21943;-48
2022/03/16 06:16:25;;;;;;;9.40;5.20;;;;;;;4.19;48.91;101757.41;116876;1188;22902;-65
2022/03/16 06:18:55;;;;;;;10.40;5.60;;;;;;;4.31;48.66;101762.88;116859;1189;21864;-64
2022/03/16 06:21:24;;;;;;;15.10;5.90;;;;;;;4.43;49.01;101765.03;116877;1190;23680;-50
2022/03/16 06:23:58;;;;;;;8.40;5.50;;;;;;;4.58;48.85;101772.19;116784;1189;23579;-65
2022/03/16 06:26:27;;;;;;;9.50;5.60;;;;;;;4.73;48.99;101778.23;116870;1189;23617;-66
2022/03/16 06:28:55;;;;;;;10.30;5.80;;;;;;;4.85;48.94;101777.80;116951;1186;21854;-63
2022/03/16 06:31:23;;;;;;;11.10;5.30;;;;;;;4.98;49.17;101781.53;116825;1188;22995;-64
2022/03/16 06:33:52;;;;;;;10.60;5.80;;;;;;;5.17;48.92;101787.16;116909;1189;23510;-65
2022/03/16 06:36:21;;;;;;;10.10;5.50;;;;;;;5.32;48.85;101791.48;116887;1189;23576;-59
2022/03/16 06:38:50;;;;;;;8.80;5.20;;;;;;;5.44;48.98;101790.83;116808;1189;23608;-64
2022/03/16 06:41:22;;;;;;;8.90;4.80;;;;;;;5.58;48.69;101795.78;116917;1188;23649;-48
2022/03/16 06:43:50;;;;;;;9.00;5.00;;;;;;;5.74;48.97;101789.80;116825;1188;23547;-50
2022/03/16 06:46:19;;;;;;;10.20;5.20;;;;;;;5.89;49.11;101789.23;116868;1188;21865;-61
2022/03/16 06:48:49;;;;;;;10.60;5.20;;;;;;;5.98;49.20;101790.17;116959;1188;23566;-49
2022/03/16 06:51:20;;;;;;;9.20;5.00;;;;;;;6.04;48.89;101793.51;116830;1188;23715;-61
2022/03/16 06:53:51;;;;;;;7.80;4.70;;;;;;;6.11;48.72;101795.48;116855;1188;21879;-50
2022/03/16 06:56:19;;;;;;;7.90;4.80;;;;;;;6.22;48.79;101791.94;116876;1189;22943;-51
2022/03/16 06:58:49;;;;;;;9.00;5.00;;;;;;;6.33;48.83;101796.77;116707;1189;23408;-51
2022/03/16 07:01:20;;;;;;;10.30;4.50;;;;;;;6.47;49.06;101802.75;116940;1188;23465;-51
2022/03/16 07:03:51;;;;;;;11.30;5.00;;;;;;;6.64;49.03;101805.83;116828;1188;21874;-49
2022/03/16 07:06:20;;;;;;;10.90;5.20;;;;;;;6.83;48.97;101809.44;116939;1189;24172;-63
2022/03/16 07:08:50;;;;;;;8.90;4.80;;;;;;;7.02;49.11;101815.52;116886;1188;24164;-51
2022/03/16 07:11:34;;;;;;;8.00;4.60;;;;;;;7.17;48.97;101816.95;116800;1189;23579;-61
2022/03/16 07:16:52;;;;;;;9.60;5.60;;;;;;;7.42;48.86;101821.05;116828;1188;21857;-63
2022/03/16 07:19:23;;;;;;;9.10;5.00;;;;;;;7.61;49.10;101824.46;116838;1188;21899;-63
2022/03/16 07:21:52;;;;;;;9.70;4.70;;;;;;;7.80;48.96;101823.98;117083;1189;24176;-52
2022/03/16 07:24:20;;;;;;;9.80;5.40;;;;;;;7.89;48.79;101823.52;116915;1188;23612;-64
2022/03/16 07:26:49;;;;;;;8.40;4.80;;;;;;;7.93;48.59;101823.77;116799;1188;21945;-63
2022/03/16 07:29:18;;;;;;;11.50;5.10;;;;;;;7.88;48.23;101828.20;116833;1188;23454;-52
2022/03/16 07:31:48;;;;;;;11.60;5.10;;;;;;;7.85;48.32;101831.11;116775;1189;21959;-62
2022/03/16 07:34:16;;;;;;;10.10;4.60;;;;;;;7.85;48.34;101834.77;116814;1188;22953;-53
2022/03/16 07:36:47;;;;;;;9.60;4.40;;;;;;;7.79;48.19;101838.83;116941;1184;21868;-52
2022/03/16 07:39:15;;;;;;;9.60;5.80;;;;;;;7.70;48.09;101833.23;116926;1183;23047;-50
2022/03/16 07:41:44;;;;;;;13.40;5.90;;;;;;;7.65;48.06;101835.71;116924;1189;21856;-50
2022/03/16 07:44:13;;;;;;;7.70;5.20;;;;;;;7.56;47.97;101832.73;116920;1189;23460;-50
2022/03/16 07:46:41;;;;;;;8.40;4.80;;;;;;;7.51;47.98;101829.64;116888;1188;23478;-62
2022/03/16 07:49:10;;;;;;;10.70;5.30;;;;;;;7.46;48.12;101821.65;116927;1186;21843;-61
2022/03/16 07:51:39;;;;;;;10.20;5.50;;;;;;;7.35;47.87;101819.47;116899;1189;22977;-51
2022/03/16 07:54:07;;;;;;;13.50;5.70;;;;;;;7.27;47.90;101818.60;116851;1185;23475;-50
2022/03/16 07:56:36;;;;;;;9.80;5.90;;;;;;;7.25;48.16;101814.34;116990;1188;22330;-50
2022/03/16 07:59:05;;;;;;;11.20;6.20;;;;;;;7.28;47.97;101808.30;116762;1185;24165;-60
2022/03/16 08:01:34;;;;;;;39.50;17.40;;;;;;;7.35;48.05;101804.09;116863;1189;23487;-52
2022/03/16 08:04:06;;;;;;;15.10;7.10;;;;;;;7.51;48.32;101799.77;116735;1189;22979;-63
2022/03/16 08:06:34;;;;;;;14.20;7.30;;;;;;;7.77;48.33;101800.33;116788;1189;23694;-61
2022/03/16 08:09:03;;;;;;;21.10;8.20;;;;;;;8.03;48.77;101802.99;116833;1189;23577;-62
2022/03/16 08:11:32;;;;;;;24.10;7.20;;;;;;;8.30;48.74;101801.96;117995;1189;24181;-62
2022/03/16 08:14:00;;;;;;;13.10;6.70;;;;;;;8.50;48.65;101799.93;116876;1188;21869;-51
2022/03/16 08:16:32;;;;;;;13.70;6.80;;;;;;;8.81;48.69;101796.48;116864;1189;24292;-63
2022/03/16 08:19:01;;;;;;;16.60;7.70;;;;;;;9.07;48.77;101795.52;116910;1188;22544;-51
2022/03/16 08:21:30;;;;;;;9.70;5.50;;;;;;;9.31;48.70;101797.83;116830;1188;21889;-51
2022/03/16 08:23:59;;;;;;;10.50;5.90;;;;;;;9.55;48.60;101790.30;116917;1188;23481;-51
2022/03/16 08:26:28;;;;;;;13.00;6.30;;;;;;;9.75;48.43;101779.02;116947;1189;23477;-52
2022/03/16 08:28:56;;;;;;;13.60;6.20;;;;;;;9.97;48.63;101766.52;116828;1189;22925;-63
2022/03/16 08:31:25;;;;;;;18.20;5.80;;;;;;;10.21;48.60;101768.00;116931;1188;23572;-63
2022/03/16 08:33:56;;;;;;;11.20;5.00;;;;;;;10.39;48.58;101765.23;116738;1189;23597;-53
2022/03/16 08:36:25;;;;;;;9.10;4.10;;;;;;;10.51;48.37;101772.23;116829;1189;23584;-53
2022/03/16 08:38:54;;;;;;;10.20;4.80;;;;;;;10.64;48.34;101770.93;116872;1189;21858;-53
2022/03/16 08:41:23;;;;;;;9.70;5.00;;;;;;;10.80;48.51;101772.33;116924;1189;23366;-64
2022/03/16 08:43:52;;;;;;;9.20;5.10;;;;;;;10.98;48.31;101764.75;116740;1189;22623;-63
2022/03/16 08:46:20;;;;;;;10.60;4.60;;;;;;;11.16;48.41;101764.38;116805;1189;21918;-64
2022/03/16 08:48:50;;;;;;;8.60;4.00;;;;;;;11.35;48.52;101758.52;116795;1189;24180;-65
2022/03/16 08:51:20;;;;;;;;;;;;;;;11.44;48.10;101767.02;116786;1184;23007;-53
2022/03/16 08:53:49;;;;;;;7.80;3.70;;;;;;;11.52;48.11;101764.08;117632;1188;21866;-54
2022/03/16 08:56:18;;;;;;;10.60;4.20;;;;;;;11.61;48.10;101759.39;116775;1186;21966;-65
2022/03/16 08:58:48;;;;;;;;;;;;;;;11.75;48.15;101764.21;116986;1188;22215;-54
2022/03/16 09:01:28;;;;;;;5.80;3.20;;;;;;;11.95;48.15;101768.17;116869;1188;23478;-65
2022/03/16 09:03:58;;;;;;;6.10;3.30;;;;;;;12.09;48.01;101775.11;116842;1188;21866;-53
2022/03/16 09:06:28;;;;;;;6.40;3.40;;;;;;;12.20;47.89;101780.61;116836;1188;22005;-53
2022/03/16 09:08:56;;;;;;;7.90;3.50;;;;;;;12.26;47.81;101778.69;116794;1189;24206;-54
2022/03/16 09:11:25;;;;;;;7.40;3.40;;;;;;;12.28;47.59;101770.77;116949;1190;22649;-53
2022/03/16 09:13:55;;;;;;;6.00;3.20;;;;;;;12.26;47.44;101769.70;116804;1189;21868;-63
2022/03/16 09:16:24;;;;;;;5.20;2.60;;;;;;;12.32;47.49;101765.86;116837;1189;23544;-65
2022/03/16 09:18:54;;;;;;;4.90;2.80;;;;;;;12.44;47.70;101759.37;116880;1188;21983;-66
2022/03/16 09:21:25;;;;;;;6.30;3.30;;;;;;;12.56;47.69;101763.80;116867;1188;22256;-52
2022/03/16 09:23:54;;;;;;;5.20;2.70;;;;;;;12.67;47.60;101755.71;116898;1188;21900;-63
2022/03/16 09:26:23;;;;;;;5.40;2.70;;;;;;;12.85;47.75;101759.06;116877;1188;23453;-54
2022/03/16 09:28:52;;;;;;;4.80;2.60;;;;;;;13.03;47.67;101755.89;116881;1189;23482;-53
2022/03/16 09:31:22;;;;;;;5.20;2.60;;;;;;;13.18;47.47;101762.05;116852;1188;23495;-54
2022/03/16 09:33:50;;;;;;;7.80;2.30;;;;;;;13.27;47.28;101766.79;116800;1188;23479;-53
2022/03/16 09:36:19;;;;;;;7.40;3.10;;;;;;;13.30;47.25;101770.49;116913;1188;21864;-53
2022/03/16 09:38:48;;;;;;;6.40;3.10;;;;;;;13.30;47.03;101768.91;116873;1188;22622;-54
2022/03/16 09:41:16;;;;;;;6.30;2.80;;;;;;;13.32;47.07;101764.33;116917;1188;24287;-53
2022/03/16 09:43:46;;;;;;;13.80;4.60;;;;;;;13.26;46.65;101762.57;116828;1191;21871;-62
2022/03/16 09:46:20;;;;;;;19.00;5.10;;;;;;;13.19;46.67;101757.30;116761;1191;23494;-53
2022/03/16 09:48:49;;;;;;;14.00;4.90;;;;;;;13.13;46.61;101764.17;116810;1189;22499;-65
2022/03/16 09:51:19;;;;;;;6.40;3.00;;;;;;;13.00;46.50;101769.47;116887;1189;23007;-65
2022/03/16 09:53:47;;;;;;;13.30;4.10;;;;;;;12.93;46.44;101772.46;116888;1188;21844;-53
2022/03/16 09:56:20;;;;;;;7.00;3.00;;;;;;;12.89;46.69;101772.10;116877;1185;21874;-63
2022/03/16 09:58:49;;;;;;;10.10;3.60;;;;;;;12.88;46.43;101771.58;116850;1188;21896;-50
2022/03/16 10:01:18;;;;;;;12.70;5.00;;;;;;;12.82;46.48;101767.16;116905;1189;23566;-52
2022/03/16 10:03:48;;;;;;;;;;;;;;;12.83;46.44;101771.57;116878;1188;21966;-51
2022/03/16 10:06:22;;;;;;;7.60;3.30;;;;;;;12.90;46.55;101762.23;116859;1188;24178;-52
2022/03/16 10:14:25;;;;;;;9.00;2.80;;;;;;;12.91;45.95;101757.84;116878;1188;24197;-52
2022/03/16 10:19:57;;;;;;;5.30;2.40;;;;;;;12.73;45.79;101761.34;116879;1188;23566;-64
2022/03/16 10:22:30;;;;;;;7.20;2.50;;;;;;;12.75;46.00;101759.25;116805;1188;21963;-62
2022/03/16 10:25:03;;;;;;;5.10;2.20;;;;;;;12.81;46.15;101758.54;116909;1188;24167;-62
2022/03/16 10:27:38;;;;;;;4.60;2.20;;;;;;;12.85;46.05;101759.59;116857;1189;23480;-52
2022/03/16 10:30:07;;;;;;;4.30;1.90;;;;;;;12.92;45.95;101762.77;116879;1188;22638;-53
2022/03/16 10:32:53;;;;;;;5.10;2.00;;;;;;;12.82;45.27;101753.44;116869;1188;21891;-59
2022/03/16 10:35:24;;;;;;;3.10;1.50;;;;;;;12.48;45.07;101754.09;116809;1188;22011;-65
2022/03/16 10:38:07;;;;;;;4.00;2.10;;;;;;;12.26;44.84;101757.22;116808;1188;22980;-65
2022/03/16 10:40:36;;;;;;;3.50;1.90;;;;;;;11.93;44.72;101750.58;116783;1191;23670;-63
2022/03/16 10:46:34;;;;;;;2.80;1.60;;;;;;;11.63;44.94;101752.02;116910;1188;23647;-64
2022/03/16 10:49:05;;;;;;;4.30;1.70;;;;;;;11.65;45.24;101757.48;116788;1189;21976;-52
2022/03/16 10:51:33;;;;;;;3.00;1.70;;;;;;;11.67;45.37;101753.97;116882;1188;21845;-51
2022/03/16 10:54:22;;;;;;;2.30;1.20;;;;;;;11.63;44.58;101755.88;116809;1189;22338;-63
2022/03/16 10:56:53;;;;;;;3.30;1.60;;;;;;;11.40;44.20;101758.91;116826;1189;23458;-62
2022/03/16 10:59:25;;;;;;;;;;;;;;;11.08;43.98;101768.70;116968;1188;21870;-53
2022/03/16 11:02:01;;;;;;;2.60;1.10;;;;;;;10.80;44.10;101765.83;116826;1189;23453;-65
2022/03/16 11:04:35;;;;;;;;;;;;;;;10.58;44.11;101761.94;116750;1189;23560;-62
2022/03/16 11:07:09;;;;;;;3.00;1.40;;;;;;;10.41;44.29;101759.98;116840;1188;23478;-55
2022/03/16 11:09:39;;;;;;;2.90;1.20;;;;;;;10.36;44.43;101755.89;116864;1188;22470;-54
2022/03/16 11:15:01;;;;;;;2.50;1.10;;;;;;;10.04;43.82;101762.55;116789;1189;21877;-64
2022/03/16 11:17:34;;;;;;;3.10;1.10;;;;;;;9.92;43.86;101773.80;116890;1188;24277;-64
2022/03/16 11:20:07;;;;;;;2.10;0.90;;;;;;;9.77;43.66;101781.66;116917;1186;21874;-52
2022/03/16 11:24:15;;;;;;;4.00;1.10;;;;;;;9.65;43.81;101786.08;116951;1188;21855;-62
2022/03/16 11:26:00;;;;;;;2.70;1.30;;;;;;;9.59;43.58;101778.10;116812;1188;23525;-54
2022/03/16 11:28:44;;;;;;;2.00;1.00;;;;;;;9.41;43.33;101783.26;116880;1188;23556;-52
2022/03/16 11:31:14;;;;;;;1.70;0.90;;;;;;;9.36;43.73;101795.11;116888;1189;24259;-63
2022/03/16 11:33:50;;;;;;;4.00;1.40;;;;;;;9.42;43.61;101789.42;116808;1184;21881;-63
2022/03/16 11:36:40;;;;;;;2.80;1.20;;;;;;;9.32;43.35;101776.13;116922;1189;23573;-65
2022/03/16 11:39:15;;;;;;;3.00;1.30;;;;;;;9.14;43.26;101778.45;116877;1188;23556;-65
2022/03/16 11:41:54;;;;;;;4.10;1.20;;;;;;;9.00;43.24;101787.00;116922;1188;21864;-65
2022/03/16 11:44:29;;;;;;;2.70;1.20;;;;;;;9.01;43.65;101801.03;116720;1188;23583;-65
2022/03/16 11:47:11;;;;;;;5.60;1.20;;;;;;;9.03;43.41;101790.55;116891;1188;23579;-65
2022/03/16 11:49:45;;;;;;;2.60;1.20;;;;;;;8.99;43.35;101781.39;116827;1189;23595;-50
2022/03/16 11:52:14;;;;;;;4.80;1.50;;;;;;;8.90;43.15;101775.10;116899;1188;23712;-50